Time;durP1;ratioP1;P1;durP2;ratioP2;P2;SDS_P1;SDS_P2;PMS_P1;PMS_P2;Temp;Humidity;BMP_temperature;BMP_pressure;BME280_temperature;BME280_humidity;BME280_pressure;Samples;Min_cycle;Max_cycle;Signal;HPM_P1;HPM_P2
2023/02/16 00:01:37;;;;;;;18.10;14.05;;;7.40;99.90;;;;;;5009869;28;20205;-76
2023/02/16 00:04:28;;;;;;;18.63;14.48;;;7.40;99.90;;;;;;5003171;28;20286;-77
2023/02/16 00:07:15;;;;;;;15.30;11.57;;;7.40;99.90;;;;;;4998441;28;20183;-78
2023/02/16 00:10:15;;;;;;;16.42;11.75;;;7.40;99.90;;;;;;5005611;28;20548;-76
2023/02/16 00:15:48;;;;;;;17.63;11.70;;;7.30;99.90;;;;;;4994427;28;20659;-76
2023/02/16 00:18:34;;;;;;;17.67;12.63;;;7.30;99.90;;;;;;4975145;28;20258;-76
2023/02/16 00:21:14;;;;;;;16.05;12.38;;;7.30;99.90;;;;;;4973389;28;20607;-76
2023/02/16 00:23:49;;;;;;;17.63;13.48;;;7.20;99.90;;;;;;4975140;28;20167;-76
2023/02/16 00:26:25;;;;;;;22.40;17.15;;;7.20;99.90;;;;;;4973563;28;20545;-76
2023/02/16 00:29:03;;;;;;;21.70;15.75;;;7.20;99.90;;;;;;4961566;28;20563;-76
2023/02/16 00:31:34;;;;;;;15.48;11.75;;;7.10;99.90;;;;;;4973737;28;20201;-76
2023/02/16 00:34:39;;;;;;;14.05;11.98;;;7.10;99.90;;;;;;4956732;28;20175;-75
2023/02/16 00:37:16;;;;;;;17.17;13.25;;;7.00;99.90;;;;;;4971558;28;20183;-76
2023/02/16 00:39:53;;;;;;;19.85;12.98;;;7.00;99.90;;;;;;4973052;28;20238;-76
2023/02/16 00:42:33;;;;;;;19.27;14.70;;;7.00;99.90;;;;;;4973843;28;20203;-76
2023/02/16 00:45:24;;;;;;;22.77;12.80;;;6.90;99.90;;;;;;4974783;28;20193;-76
2023/02/16 00:47:56;;;;;;;18.55;14.63;;;6.90;99.90;;;;;;5014888;28;20202;-77
2023/02/16 00:50:51;;;;;;;17.88;13.63;;;6.90;99.90;;;;;;5011495;28;20631;-76
2023/02/16 00:53:34;;;;;;;16.23;11.68;;;6.80;99.90;;;;;;4996758;28;20221;-77
2023/02/16 00:56:13;;;;;;;21.90;15.18;;;6.80;99.90;;;;;;4986049;28;20192;-77
2023/02/16 00:58:44;;;;;;;19.98;13.73;;;6.80;99.90;;;;;;4980926;28;20281;-77
2023/02/16 01:01:20;;;;;;;24.88;16.60;;;6.70;99.90;;;;;;4999663;28;20199;-77
2023/02/16 01:03:54;;;;;;;16.75;13.52;;;6.70;99.90;;;;;;5003241;28;20201;-76
2023/02/16 01:12:17;;;;;;;16.17;11.45;;;6.60;99.90;;;;;;4992649;28;20202;-77
2023/02/16 01:14:58;;;;;;;19.25;13.20;;;6.60;99.90;;;;;;5008215;28;20189;-77
2023/02/16 01:17:44;;;;;;;20.67;14.77;;;6.60;99.90;;;;;;5021132;28;20167;-76
2023/02/16 01:20:38;;;;;;;20.08;15.02;;;6.50;99.90;;;;;;5028203;28;20232;-77
2023/02/16 01:23:20;;;;;;;17.83;14.73;;;6.50;99.90;;;;;;5012023;28;20170;-76
2023/02/16 01:25:56;;;;;;;25.15;17.45;;;6.40;99.90;;;;;;5013522;28;20173;-77
2023/02/16 01:28:35;;;;;;;21.20;14.63;;;6.40;99.90;;;;;;5007961;28;20186;-76
2023/02/16 01:31:12;;;;;;;18.20;14.90;;;6.40;99.90;;;;;;4989852;28;20242;-77
2023/02/16 01:33:54;;;;;;;21.45;15.80;;;6.30;99.90;;;;;;5010743;28;20178;-76
2023/02/16 01:36:35;;;;;;;18.30;14.07;;;6.30;99.90;;;;;;5003320;28;20171;-77
2023/02/16 01:39:24;;;;;;;19.02;12.90;;;6.30;99.90;;;;;;4966748;28;20234;-77
2023/02/16 01:42:04;;;;;;;24.33;17.60;;;6.20;99.90;;;;;;5005558;28;20199;-77
2023/02/16 01:44:40;;;;;;;25.45;18.40;;;6.20;99.90;;;;;;5005473;28;20225;-77
2023/02/16 01:47:31;;;;;;;21.02;14.18;;;6.20;99.90;;;;;;5004634;28;20217;-76
2023/02/16 01:50:31;;;;;;;23.08;16.70;;;6.20;99.90;;;;;;4985265;28;20174;-77
2023/02/16 01:53:35;;;;;;;20.20;14.75;;;6.10;99.90;;;;;;4987140;28;20174;-77
2023/02/16 01:56:56;;;;;;;18.75;13.38;;;6.10;99.90;;;;;;5002300;28;20228;-76
2023/02/16 01:59:49;;;;;;;20.40;13.98;;;6.10;99.90;;;;;;4981722;28;20183;-76
2023/02/16 02:02:27;;;;;;;18.05;13.77;;;6.10;99.90;;;;;;4999898;28;20521;-74
2023/02/16 02:13:27;;;;;;;19.35;12.90;;;6.00;99.90;;;;;;5002071;28;20203;-77
2023/02/16 02:16:05;;;;;;;18.70;12.30;;;6.00;99.90;;;;;;4998532;28;20214;-77
2023/02/16 02:18:50;;;;;;;16.08;10.75;;;6.00;99.90;;;;;;4997000;28;20265;-77
2023/02/16 02:24:29;;;;;;;22.02;15.27;;;5.90;99.90;;;;;;4974440;28;20186;-77
2023/02/16 02:27:23;;;;;;;17.65;13.80;;;5.90;99.90;;;;;;4993662;28;20249;-76
2023/02/16 02:30:21;;;;;;;20.05;14.00;;;5.90;99.90;;;;;;4989229;28;20178;-77
2023/02/16 02:33:22;;;;;;;17.13;12.80;;;5.80;99.90;;;;;;4975066;28;20623;-77
2023/02/16 02:36:24;;;;;;;17.92;13.23;;;5.80;99.90;;;;;;4969219;28;20667;-77
2023/02/16 02:39:40;;;;;;;18.38;14.45;;;5.80;99.90;;;;;;5009559;28;20185;-77
2023/02/16 02:42:44;;;;;;;18.38;13.32;;;5.80;99.90;;;;;;4977369;28;20293;-77
2023/02/16 02:46:12;;;;;;;15.10;12.27;;;5.80;99.90;;;;;;5008311;28;20203;-77
2023/02/16 02:48:54;;;;;;;19.20;13.82;;;5.70;99.90;;;;;;4992387;28;20218;-76
2023/02/16 02:51:57;;;;;;;22.30;15.95;;;5.70;99.90;;;;;;4977554;28;20703;-78
2023/02/16 03:00:54;;;;;;;17.92;13.05;;;5.70;99.90;;;;;;4990299;28;20182;-76
2023/02/16 03:03:38;;;;;;;20.75;14.57;;;5.80;99.90;;;;;;4990265;28;20224;-77
2023/02/16 03:06:18;;;;;;;25.80;15.80;;;5.70;99.90;;;;;;4989920;28;20542;-77
2023/02/16 03:09:15;;;;;;;19.92;13.23;;;5.70;99.90;;;;;;4991676;28;20209;-77
2023/02/16 03:15:12;;;;;;;16.20;12.32;;;5.70;99.90;;;;;;4990145;28;20628;-77
2023/02/16 03:29:21;;;;;;;23.33;15.05;;;5.70;99.90;;;;;;5009622;28;20252;-77
2023/02/16 03:32:00;;;;;;;22.52;15.82;;;5.70;99.90;;;;;;5009700;28;20206;-77
2023/02/16 03:34:49;;;;;;;21.65;16.08;;;5.70;99.90;;;;;;5011003;28;20179;-76
2023/02/16 03:38:00;;;;;;;25.50;17.13;;;5.60;99.90;;;;;;5010733;28;20198;-77
2023/02/16 03:40:46;;;;;;;23.83;17.98;;;5.60;99.90;;;;;;5010741;28;20316;-77
2023/02/16 03:43:23;;;;;;;22.92;16.58;;;5.60;99.90;;;;;;5009916;28;20182;-78
2023/02/16 03:46:09;;;;;;;19.35;15.77;;;5.60;99.90;;;;;;5025069;28;20209;-77
2023/02/16 03:48:49;;;;;;;21.95;15.15;;;5.60;99.90;;;;;;5009022;28;20210;-77
2023/02/16 03:51:20;;;;;;;26.73;18.73;;;5.50;99.90;;;;;;4996723;28;20277;-77
2023/02/16 03:53:53;;;;;;;20.05;15.25;;;5.50;99.90;;;;;;5001244;28;20538;-78
2023/02/16 03:56:40;;;;;;;21.67;16.80;;;5.50;99.90;;;;;;4988999;28;20508;-77
2023/02/16 03:59:25;;;;;;;20.17;14.27;;;5.50;99.90;;;;;;4990609;28;20656;-77
2023/02/16 04:02:02;;;;;;;19.20;14.82;;;5.50;99.90;;;;;;4990814;28;20595;-77
2023/02/16 04:04:39;;;;;;;22.48;16.15;;;5.50;99.90;;;;;;4989669;28;20237;-77
2023/02/16 04:07:10;;;;;;;22.65;16.83;;;5.50;99.90;;;;;;4990334;28;20803;-77
2023/02/16 04:09:36;;;;;;;22.95;14.98;;;5.50;99.90;;;;;;4989820;28;20230;-77
2023/02/16 04:14:51;;;;;;;23.88;17.45;;;5.50;99.90;;;;;;4992603;28;20567;-77
2023/02/16 04:17:37;;;;;;;19.58;14.85;;;5.40;99.90;;;;;;5005381;28;20221;-77
2023/02/16 04:20:17;;;;;;;20.40;15.60;;;5.40;99.90;;;;;;5003581;28;20175;-77
2023/02/16 04:22:46;;;;;;;22.50;15.93;;;5.40;99.90;;;;;;5008280;28;20203;-77
2023/02/16 04:25:18;;;;;;;18.95;13.77;;;5.40;99.90;;;;;;4992508;28;20179;-77
2023/02/16 04:27:55;;;;;;;21.60;14.70;;;5.40;99.90;;;;;;4976261;28;20676;-77
2023/02/16 04:30:30;;;;;;;20.42;15.77;;;5.40;99.90;;;;;;5011644;28;20178;-77
2023/02/16 04:33:03;;;;;;;22.02;16.35;;;5.40;99.90;;;;;;5009800;28;20256;-77
2023/02/16 04:35:34;;;;;;;25.20;16.48;;;5.40;99.90;;;;;;4995641;28;20498;-77
2023/02/16 04:38:03;;;;;;;22.00;15.80;;;5.40;99.90;;;;;;5010397;28;20317;-77
2023/02/16 04:40:31;;;;;;;22.70;15.90;;;5.40;99.90;;;;;;4993496;28;20179;-77
2023/02/16 04:43:19;;;;;;;15.45;12.25;;;5.40;99.90;;;;;;4994218;28;20166;-77
2023/02/16 04:45:55;;;;;;;22.88;16.25;;;5.40;99.90;;;;;;4993311;28;20163;-77
2023/02/16 04:48:29;;;;;;;21.98;13.05;;;5.30;99.90;;;;;;4994087;28;20198;-77
2023/02/16 04:51:16;;;;;;;21.95;14.20;;;5.30;99.90;;;;;;5008474;28;20210;-77
2023/02/16 04:53:47;;;;;;;20.20;14.38;;;5.30;99.90;;;;;;4992749;28;20259;-77
2023/02/16 04:56:16;;;;;;;23.65;15.95;;;5.30;99.90;;;;;;4991525;28;20175;-77
2023/02/16 04:58:47;;;;;;;24.80;18.30;;;5.20;99.90;;;;;;4993705;28;20211;-77
2023/02/16 05:01:41;;;;;;;24.40;17.45;;;5.20;99.90;;;;;;4994858;28;20225;-77
2023/02/16 05:04:15;;;;;;;20.80;15.43;;;5.20;99.90;;;;;;5009431;28;20218;-77
2023/02/16 05:07:04;;;;;;;28.38;19.60;;;5.20;99.90;;;;;;5009026;28;20182;-77
2023/02/16 05:09:45;;;;;;;22.55;16.58;;;5.10;99.90;;;;;;5011618;28;20261;-77
2023/02/16 05:15:31;;;;;;;25.58;18.02;;;5.10;99.90;;;;;;4985383;28;20894;-77
2023/02/16 05:18:11;;;;;;;27.30;17.65;;;5.10;99.90;;;;;;5003064;28;20181;-78
2023/02/16 05:23:35;;;;;;;20.63;15.13;;;5.10;99.90;;;;;;5011930;28;20229;-77
2023/02/16 05:26:10;;;;;;;25.40;15.85;;;5.00;99.90;;;;;;5011046;28;20507;-77
2023/02/16 05:28:44;;;;;;;22.60;16.00;;;5.00;99.90;;;;;;5011419;28;20201;-77
2023/02/16 05:31:35;;;;;;;22.50;15.10;;;5.00;99.90;;;;;;5012219;28;20621;-77
2023/02/16 05:34:10;;;;;;;21.45;16.20;;;5.00;99.90;;;;;;5011112;28;20189;-77
2023/02/16 05:36:39;;;;;;;23.52;15.90;;;4.90;99.90;;;;;;5010365;28;20182;-76
2023/02/16 05:39:16;;;;;;;22.85;16.27;;;4.90;99.90;;;;;;5011233;28;20174;-77
2023/02/16 05:41:52;;;;;;;24.23;17.52;;;4.90;99.90;;;;;;5011462;28;20201;-77
2023/02/16 05:44:31;;;;;;;21.10;15.77;;;4.90;99.90;;;;;;5015695;28;20522;-77
2023/02/16 05:46:57;;;;;;;21.70;15.48;;;4.90;99.90;;;;;;5010761;28;20260;-81
2023/02/16 05:49:23;;;;;;;19.57;14.10;;;4.90;99.90;;;;;;5012219;28;20225;-80
2023/02/16 05:51:49;;;;;;;22.47;14.63;;;4.90;99.90;;;;;;5010388;28;20198;-81
2023/02/16 05:54:17;;;;;;;21.40;15.53;;;5.00;99.90;;;;;;4994437;28;20171;-81
2023/02/16 05:56:48;;;;;;;26.92;17.63;;;5.00;99.90;;;;;;5010356;28;20174;-80
2023/02/16 05:59:15;;;;;;;21.80;15.15;;;5.00;99.90;;;;;;5012495;28;20175;-80
2023/02/16 06:01:42;;;;;;;25.60;17.38;;;5.00;99.90;;;;;;5010728;28;20202;-80
2023/02/16 06:04:10;;;;;;;27.33;16.23;;;5.00;99.90;;;;;;5010573;28;20193;-80
2023/02/16 06:06:38;;;;;;;21.00;15.63;;;5.00;99.90;;;;;;5011876;28;20178;-80
2023/02/16 06:09:06;;;;;;;25.75;18.80;;;5.00;99.90;;;;;;5009067;28;20210;-79
2023/02/16 06:11:34;;;;;;;22.35;17.88;;;4.90;99.90;;;;;;5011612;28;20198;-80
2023/02/16 06:14:01;;;;;;;24.05;17.70;;;4.90;99.90;;;;;;5010458;28;20229;-80
2023/02/16 06:16:29;;;;;;;23.92;15.90;;;4.90;99.90;;;;;;5010723;28;20188;-80
2023/02/16 06:18:56;;;;;;;22.13;17.17;;;4.90;99.90;;;;;;5010108;28;20266;-79
2023/02/16 06:21:23;;;;;;;24.90;15.82;;;4.80;99.90;;;;;;4993960;28;20207;-80
2023/02/16 06:23:49;;;;;;;24.98;18.10;;;4.80;99.90;;;;;;4992415;28;20232;-79
2023/02/16 06:26:15;;;;;;;24.57;16.43;;;4.80;99.90;;;;;;4991569;28;20171;-79
2023/02/16 06:28:41;;;;;;;20.50;15.57;;;4.80;99.90;;;;;;4992221;28;20202;-79
2023/02/16 06:31:08;;;;;;;24.45;16.92;;;4.90;99.90;;;;;;4990535;28;20214;-79
2023/02/16 06:33:33;;;;;;;22.70;17.30;;;4.90;99.90;;;;;;4990880;28;20179;-79
2023/02/16 06:35:59;;;;;;;22.93;18.23;;;4.90;99.90;;;;;;4989279;28;21366;-79
2023/02/16 06:38:25;;;;;;;27.10;17.60;;;4.90;99.90;;;;;;4991993;28;20190;-79
2023/02/16 06:40:52;;;;;;;25.83;17.70;;;4.90;99.90;;;;;;4991911;28;20167;-80
2023/02/16 06:43:17;;;;;;;22.20;15.85;;;5.00;99.90;;;;;;4991537;28;20260;-79
2023/02/16 06:45:43;;;;;;;22.90;17.80;;;5.00;99.90;;;;;;4990260;28;20267;-80
2023/02/16 06:48:09;;;;;;;21.00;16.40;;;5.10;99.90;;;;;;4990563;28;20272;-80
2023/02/16 06:50:35;;;;;;;24.37;18.10;;;5.10;99.90;;;;;;4992244;28;20186;-79
2023/02/16 06:53:00;;;;;;;20.40;15.77;;;5.20;99.90;;;;;;4990146;28;20249;-79
2023/02/16 06:55:27;;;;;;;23.60;16.67;;;5.20;99.90;;;;;;5006862;28;20202;-80
2023/02/16 06:57:53;;;;;;;21.45;15.60;;;5.30;99.90;;;;;;4992713;28;20582;-80
2023/02/16 07:00:19;;;;;;;24.70;17.87;;;5.30;99.90;;;;;;4993799;28;20174;-80
2023/02/16 07:02:45;;;;;;;23.13;15.20;;;5.40;99.90;;;;;;4999614;28;20887;-81
2023/02/16 07:05:11;;;;;;;22.73;16.35;;;5.40;99.90;;;;;;4986444;28;20654;-80
2023/02/16 07:07:37;;;;;;;20.40;15.50;;;5.50;99.90;;;;;;4974920;28;20227;-80
2023/02/16 07:10:03;;;;;;;21.20;15.90;;;5.50;99.90;;;;;;4995941;28;20628;-80
2023/02/16 07:12:29;;;;;;;21.40;15.03;;;5.60;99.90;;;;;;4976791;28;20684;-81
2023/02/16 07:14:55;;;;;;;24.13;17.20;;;5.60;99.90;;;;;;4973573;28;20586;-80
2023/02/16 07:17:22;;;;;;;24.08;17.63;;;5.60;99.90;;;;;;4994300;28;20167;-79
2023/02/16 07:19:48;;;;;;;20.70;15.80;;;5.70;99.90;;;;;;4995947;28;20190;-80
2023/02/16 07:22:14;;;;;;;28.30;17.90;;;5.70;99.90;;;;;;5002848;28;20193;-80
2023/02/16 07:24:39;;;;;;;24.43;17.63;;;5.80;99.90;;;;;;4990316;28;20175;-80
2023/02/16 07:27:07;;;;;;;20.70;16.23;;;5.90;99.90;;;;;;4972665;28;20698;-80
2023/02/16 07:29:33;;;;;;;23.30;17.63;;;5.90;99.90;;;;;;4991763;28;20187;-80
2023/02/16 07:32:00;;;;;;;27.45;19.30;;;5.90;99.90;;;;;;4974191;28;20199;-80
2023/02/16 07:34:26;;;;;;;26.50;19.23;;;6.00;99.90;;;;;;4989896;28;20190;-81
2023/02/16 07:36:51;;;;;;;21.17;17.33;;;5.90;99.90;;;;;;5010569;28;20167;-81
2023/02/16 07:39:18;;;;;;;23.87;16.33;;;6.00;99.90;;;;;;4989939;28;20185;-81
2023/02/16 07:41:44;;;;;;;25.00;16.20;;;6.00;99.90;;;;;;4973653;28;20203;-81
2023/02/16 07:44:09;;;;;;;26.70;20.50;;;6.00;99.90;;;;;;4989837;28;20183;-81
2023/02/16 07:46:35;;;;;;;23.57;15.60;;;6.00;99.90;;;;;;4991806;28;20187;-81
2023/02/16 07:49:01;;;;;;;26.20;19.13;;;6.10;99.90;;;;;;4994676;28;20244;-81
2023/02/16 07:51:29;;;;;;;28.60;18.63;;;6.10;99.90;;;;;;4993178;28;20198;-81
2023/02/16 07:53:57;;;;;;;23.55;16.80;;;6.10;99.90;;;;;;4977354;28;20613;-80
2023/02/16 07:56:27;;;;;;;24.98;16.25;;;6.10;99.90;;;;;;4993276;28;20282;-81
2023/02/16 07:58:55;;;;;;;28.30;21.58;;;6.10;99.90;;;;;;4996974;28;20179;-82
2023/02/16 08:01:21;;;;;;;25.42;19.30;;;6.10;99.90;;;;;;5004404;28;20194;-82
2023/02/16 08:03:48;;;;;;;23.40;16.17;;;6.10;99.90;;;;;;5005950;28;20598;-82
2023/02/16 08:06:14;;;;;;;24.13;17.95;;;6.20;99.90;;;;;;4992792;28;20182;-81
2023/02/16 08:08:40;;;;;;;22.03;16.30;;;6.30;99.90;;;;;;4993617;28;20261;-81
2023/02/16 08:11:18;;;;;;;26.33;18.85;;;6.40;99.90;;;;;;4993032;28;20769;-82
2023/02/16 08:13:45;;;;;;;21.27;16.55;;;6.40;99.90;;;;;;4997403;28;20177;-81
2023/02/16 08:16:23;;;;;;;28.92;19.95;;;6.50;99.90;;;;;;4992391;28;20217;-81
2023/02/16 08:18:51;;;;;;;27.00;17.17;;;6.50;99.90;;;;;;4993007;28;20602;-81
2023/02/16 08:21:19;;;;;;;21.83;15.02;;;6.60;99.90;;;;;;4992877;28;20198;-81
2023/02/16 08:23:51;;;;;;;28.40;18.77;;;6.60;99.90;;;;;;4993758;28;20212;-81
2023/02/16 08:26:17;;;;;;;23.13;16.10;;;6.70;99.90;;;;;;4996301;28;20794;-83
2023/02/16 08:28:48;;;;;;;22.00;15.95;;;6.80;99.90;;;;;;5007715;28;20285;-83
2023/02/16 08:31:17;;;;;;;27.92;19.85;;;6.70;99.90;;;;;;5014262;28;20577;-82
2023/02/16 08:33:44;;;;;;;26.27;19.23;;;6.80;99.90;;;;;;5003852;28;20603;-82
2023/02/16 08:36:23;;;;;;;27.65;20.05;;;6.80;99.90;;;;;;4979654;28;20202;-82
2023/02/16 08:38:51;;;;;;;28.00;18.48;;;6.80;99.90;;;;;;5003042;28;20608;-82
2023/02/16 08:41:22;;;;;;;23.42;18.90;;;6.80;99.90;;;;;;5005517;28;20287;-82
2023/02/16 08:43:49;;;;;;;23.05;17.45;;;6.80;99.90;;;;;;5012947;28;20197;-81
2023/02/16 08:46:15;;;;;;;23.30;15.27;;;6.90;99.90;;;;;;5011963;28;20253;-83
2023/02/16 08:48:42;;;;;;;28.38;21.00;;;6.90;99.90;;;;;;5014066;28;20217;-83
2023/02/16 08:51:16;;;;;;;27.17;18.33;;;6.90;99.90;;;;;;5017577;28;20666;-84
2023/02/16 08:53:42;;;;;;;19.45;15.90;;;7.00;99.90;;;;;;5014382;28;20166;-82
2023/02/16 08:56:09;;;;;;;25.00;17.52;;;7.00;99.90;;;;;;5012263;28;20175;-82
2023/02/16 08:58:36;;;;;;;23.70;17.80;;;7.10;99.90;;;;;;5007642;28;20214;-82
2023/02/16 09:01:09;;;;;;;21.65;16.40;;;7.20;99.90;;;;;;5004008;28;20193;-81
2023/02/16 09:03:37;;;;;;;19.98;16.30;;;7.40;99.90;;;;;;5013262;28;20174;-82
2023/02/16 09:06:04;;;;;;;22.85;18.10;;;7.60;99.90;;;;;;5012609;28;20182;-82
2023/02/16 09:08:36;;;;;;;25.33;19.45;;;8.00;99.90;;;;;;5015022;28;20205;-82
2023/02/16 09:11:07;;;;;;;21.00;16.17;;;8.50;99.90;;;;;;5014445;28;20198;-83
2023/02/16 09:13:35;;;;;;;25.13;17.40;;;9.20;99.90;;;;;;5029295;28;20166;-82
2023/02/16 09:16:05;;;;;;;20.52;16.90;;;9.70;99.90;;;;;;5016822;28;20197;-79
2023/02/16 09:18:31;;;;;;;23.33;18.95;;;10.10;99.90;;;;;;5009342;28;20266;-84
2023/02/16 09:21:02;;;;;;;21.88;17.38;;;10.20;99.90;;;;;;4978024;28;20195;-75
2023/02/16 09:23:28;;;;;;;20.30;15.45;;;10.30;99.90;;;;;;5000139;28;20587;-75
2023/02/16 09:25:53;;;;;;;23.33;18.53;;;10.50;99.90;;;;;;5007749;28;20163;-75
2023/02/16 09:28:20;;;;;;;20.90;15.45;;;10.90;99.90;;;;;;4994829;28;20203;-76
2023/02/16 09:30:46;;;;;;;25.63;19.20;;;11.30;99.90;;;;;;4992494;28;20179;-76
2023/02/16 09:33:12;;;;;;;23.40;18.77;;;11.50;99.90;;;;;;4991440;28;20187;-75
2023/02/16 09:35:41;;;;;;;22.57;17.37;;;11.60;99.90;;;;;;4994190;28;20525;-75
2023/02/16 09:38:07;;;;;;;20.05;17.20;;;11.60;99.90;;;;;;5007064;28;20186;-75
2023/02/16 09:40:36;;;;;;;25.02;19.50;;;12.00;99.90;;;;;;5015351;28;20174;-76
2023/02/16 09:43:28;;;;;;;23.60;18.27;;;12.70;99.90;;;;;;5014139;28;20209;-76
2023/02/16 09:45:57;;;;;;;24.17;17.43;;;13.10;99.90;;;;;;5004346;28;20605;-76
2023/02/16 09:48:34;;;;;;;22.10;17.67;;;13.30;99.90;;;;;;5006521;28;20717;-75
2023/02/16 09:51:03;;;;;;;20.00;16.30;;;13.30;99.90;;;;;;4992850;28;20641;-75
2023/02/16 09:53:36;;;;;;;22.00;19.20;;;13.20;99.90;;;;;;4990941;28;20997;-75
2023/02/16 09:56:05;;;;;;;23.92;19.38;;;13.10;99.90;;;;;;4992580;28;20171;-75
2023/02/16 09:58:53;;;;;;;23.88;19.40;;;12.80;99.90;;;;;;4992533;28;20171;-76
2023/02/16 10:01:30;;;;;;;19.85;17.63;;;12.50;99.90;;;;;;4992851;28;20657;-75
2023/02/16 10:04:33;;;;;;;24.70;18.45;;;12.30;99.90;;;;;;4996039;28;20176;-75
2023/02/16 10:07:02;;;;;;;22.98;19.42;;;12.20;99.90;;;;;;4992843;28;20167;-75
2023/02/16 10:09:30;;;;;;;21.95;15.73;;;12.10;99.90;;;;;;4990643;28;20237;-75
2023/02/16 10:12:06;;;;;;;19.27;16.45;;;12.00;99.90;;;;;;4990559;28;20195;-75
2023/02/16 10:14:42;;;;;;;20.30;17.38;;;11.90;99.90;;;;;;4991989;28;20193;-76
2023/02/16 10:17:14;;;;;;;23.73;18.50;;;11.80;99.90;;;;;;4973378;28;20206;-75
2023/02/16 10:19:56;;;;;;;25.27;19.27;;;11.70;99.90;;;;;;4995831;28;20264;-75
2023/02/16 10:22:44;;;;;;;22.65;18.83;;;11.60;99.90;;;;;;4991086;28;20218;-75
2023/02/16 10:25:34;;;;;;;24.17;17.05;;;11.50;99.90;;;;;;4990282;28;20265;-75
2023/02/16 10:28:19;;;;;;;20.80;15.38;;;11.50;99.90;;;;;;4994397;28;20302;-75
2023/02/16 10:30:59;;;;;;;21.42;16.55;;;11.40;99.90;;;;;;4980592;28;20183;-75
2023/02/16 10:33:42;;;;;;;18.80;15.05;;;11.50;99.90;;;;;;4991995;28;20522;-75
2023/02/16 10:36:32;;;;;;;20.02;16.38;;;11.50;99.90;;;;;;4991749;28;20261;-75
2023/02/16 10:39:11;;;;;;;20.38;16.40;;;11.50;99.90;;;;;;4989497;28;20270;-75
2023/02/16 10:41:45;;;;;;;19.65;16.88;;;11.60;99.90;;;;;;4996533;28;20272;-74
2023/02/16 10:44:14;;;;;;;21.35;17.05;;;11.60;99.90;;;;;;4992493;28;20192;-75
2023/02/16 10:46:45;;;;;;;20.50;16.08;;;11.60;99.90;;;;;;4994678;28;20548;-75
2023/02/16 10:49:13;;;;;;;21.17;15.60;;;11.60;99.90;;;;;;4973322;28;20305;-75
2023/02/16 10:51:45;;;;;;;18.95;15.77;;;11.60;99.90;;;;;;4990099;28;20733;-75
2023/02/16 10:54:21;;;;;;;19.65;16.17;;;11.60;99.90;;;;;;4991615;28;20179;-75
2023/02/16 10:57:05;;;;;;;19.40;15.45;;;11.60;99.90;;;;;;5001687;28;20170;-76
2023/02/16 10:59:43;;;;;;;22.55;17.05;;;11.60;99.90;;;;;;4997978;28;20193;-75
2023/02/16 11:02:38;;;;;;;23.20;18.05;;;11.60;99.90;;;;;;5010627;28;20201;-75
2023/02/16 11:05:26;;;;;;;19.95;14.27;;;11.60;99.90;;;;;;5010260;28;20215;-75
2023/02/16 11:08:00;;;;;;;19.75;14.20;;;11.60;99.90;;;;;;5010851;28;20300;-75
2023/02/16 11:10:37;;;;;;;17.70;14.95;;;11.70;99.90;;;;;;5009309;28;20166;-74
2023/02/16 11:13:04;;;;;;;25.75;16.17;;;11.80;99.90;;;;;;5010014;28;20205;-75
2023/02/16 11:15:30;;;;;;;22.27;16.95;;;11.80;99.90;;;;;;4986351;28;20377;-74
2023/02/16 11:17:59;;;;;;;21.17;17.88;;;11.80;99.90;;;;;;5013479;28;20190;-74
2023/02/16 11:20:45;;;;;;;22.30;17.27;;;11.80;99.90;;;;;;4999817;28;20228;-75
2023/02/16 11:23:27;;;;;;;18.27;15.25;;;11.80;99.90;;;;;;5004404;28;20269;-75
2023/02/16 11:25:57;;;;;;;19.10;15.80;;;11.80;99.90;;;;;;4997738;28;20593;-75
2023/02/16 11:28:32;;;;;;;22.50;17.50;;;11.80;99.90;;;;;;4993041;28;20568;-75
2023/02/16 11:31:12;;;;;;;19.90;16.27;;;11.80;99.90;;;;;;4993996;28;20714;-75
2023/02/16 11:33:40;;;;;;;21.00;15.57;;;11.90;99.90;;;;;;4994741;28;20183;-75
2023/02/16 11:36:40;;;;;;;22.58;17.23;;;11.90;99.90;;;;;;4992945;28;20711;-75
2023/02/16 11:39:24;;;;;;;19.58;16.20;;;12.00;99.90;;;;;;4938608;28;20191;-75
2023/02/16 11:42:16;;;;;;;23.02;18.38;;;12.20;99.90;;;;;;4979132;28;20556;-75
2023/02/16 11:44:49;;;;;;;20.33;16.52;;;12.20;99.90;;;;;;5006590;28;20174;-75
2023/02/16 11:47:21;;;;;;;23.15;19.25;;;12.30;99.90;;;;;;4997228;28;20178;-75
2023/02/16 11:49:50;;;;;;;25.05;18.50;;;12.30;99.90;;;;;;5031431;23;20225;-75
2023/02/16 11:52:23;;;;;;;21.25;14.88;;;12.40;99.90;;;;;;5020887;28;20230;-75
2023/02/16 11:54:52;;;;;;;18.77;16.77;;;12.40;99.90;;;;;;5034820;28;20274;-74
2023/02/16 11:57:34;;;;;;;20.85;17.42;;;12.50;99.90;;;;;;5019649;28;20166;-75
2023/02/16 12:00:12;;;;;;;21.85;18.60;;;12.50;99.90;;;;;;5018299;28;20201;-74
2023/02/16 12:02:57;;;;;;;20.23;17.95;;;12.60;99.90;;;;;;5018779;28;20573;-75
2023/02/16 12:05:44;;;;;;;21.42;16.40;;;12.60;99.90;;;;;;5019752;28;20226;-74
2023/02/16 12:08:29;;;;;;;22.05;16.23;;;12.60;99.90;;;;;;5000303;28;20614;-74
2023/02/16 12:11:24;;;;;;;23.20;18.33;;;12.70;99.90;;;;;;4979057;28;20249;-74
2023/02/16 12:14:17;;;;;;;18.85;15.75;;;12.70;99.90;;;;;;5012956;28;20186;-75
2023/02/16 12:17:08;;;;;;;18.63;15.07;;;12.70;99.90;;;;;;5003256;28;20170;-75
2023/02/16 12:19:52;;;;;;;22.25;16.25;;;12.70;99.90;;;;;;5021752;28;20198;-74
2023/02/16 12:22:49;;;;;;;18.10;15.70;;;12.70;99.90;;;;;;5020216;28;20273;-75
2023/02/16 12:25:25;;;;;;;16.48;13.85;;;12.60;99.90;;;;;;5020358;28;20174;-75
2023/02/16 12:28:13;;;;;;;16.65;13.70;;;12.60;99.90;;;;;;4966881;28;20710;-75
2023/02/16 12:31:08;;;;;;;16.15;13.43;;;12.60;99.90;;;;;;5001895;28;20191;-75
2023/02/16 12:33:48;;;;;;;22.40;16.65;;;12.60;99.90;;;;;;4996519;28;20181;-73
2023/02/16 12:36:32;;;;;;;15.23;13.60;;;12.70;99.90;;;;;;4998656;28;20662;-74
2023/02/16 12:39:45;;;;;;;17.30;14.20;;;12.80;99.90;;;;;;5000719;28;20844;-74
2023/02/16 12:42:47;;;;;;;15.43;12.77;;;12.80;99.90;;;;;;4995950;28;20230;-75
2023/02/16 12:45:18;;;;;;;16.38;13.43;;;12.80;99.90;;;;;;4996504;28;20175;-74
2023/02/16 12:47:54;;;;;;;17.70;14.05;;;12.90;99.90;;;;;;4999121;28;20214;-75
2023/02/16 12:50:29;;;;;;;18.10;14.25;;;12.80;99.90;;;;;;4999057;28;20210;-74
2023/02/16 12:53:08;;;;;;;18.42;16.08;;;12.80;99.90;;;;;;5000265;28;20261;-74
2023/02/16 12:55:51;;;;;;;19.38;16.17;;;12.90;99.90;;;;;;4999973;28;20175;-74
2023/02/16 12:58:29;;;;;;;24.90;17.58;;;12.90;99.90;;;;;;4998066;28;20247;-75
2023/02/16 13:01:02;;;;;;;20.27;16.05;;;13.00;99.90;;;;;;4997753;28;20198;-74
2023/02/16 13:03:31;;;;;;;20.33;17.25;;;13.10;99.90;;;;;;4996666;28;20740;-74
2023/02/16 13:06:18;;;;;;;23.20;18.90;;;13.10;99.90;;;;;;4992667;28;20205;-74
2023/02/16 13:09:10;;;;;;;20.17;15.85;;;13.00;99.90;;;;;;4993382;28;20272;-74
2023/02/16 13:11:54;;;;;;;20.70;17.67;;;13.10;99.90;;;;;;4977196;28;20202;-73
2023/02/16 13:14:25;;;;;;;18.08;14.73;;;13.10;99.90;;;;;;4994632;28;20167;-74
2023/02/16 13:17:11;;;;;;;20.40;16.40;;;13.10;99.90;;;;;;4997385;28;20258;-74
2023/02/16 13:19:37;;;;;;;21.33;17.25;;;13.10;99.90;;;;;;4997203;28;20222;-74
2023/02/16 13:22:44;;;;;;;23.63;18.57;;;13.10;99.90;;;;;;4978515;28;20170;-75
2023/02/16 13:25:28;;;;;;;22.75;17.65;;;13.10;99.90;;;;;;4998056;28;20233;-74
2023/02/16 13:28:30;;;;;;;23.58;15.45;;;13.20;99.90;;;;;;4999157;28;20629;-75
2023/02/16 13:31:35;;;;;;;19.45;16.05;;;13.20;99.90;;;;;;4981492;28;20570;-75
2023/02/16 13:34:17;;;;;;;19.17;15.52;;;13.20;99.90;;;;;;4992814;28;20178;-75
2023/02/16 13:37:12;;;;;;;17.60;14.70;;;13.20;99.90;;;;;;4996301;28;20186;-74
2023/02/16 13:40:17;;;;;;;20.17;15.70;;;13.20;99.90;;;;;;4997327;28;20620;-74
2023/02/16 13:43:01;;;;;;;19.13;15.45;;;13.20;99.90;;;;;;4978659;28;20598;-74
2023/02/16 13:45:31;;;;;;;18.75;16.60;;;13.20;99.90;;;;;;4996807;28;20234;-75
2023/02/16 13:47:58;;;;;;;20.83;16.08;;;13.30;99.90;;;;;;4998713;28;20207;-75
2023/02/16 13:50:42;;;;;;;18.25;15.65;;;13.30;99.90;;;;;;4997467;28;20207;-75
2023/02/16 13:53:19;;;;;;;19.30;15.23;;;13.40;99.90;;;;;;4998195;28;20171;-75
2023/02/16 13:55:45;;;;;;;21.85;15.48;;;13.50;99.90;;;;;;4998522;28;20422;-74
2023/02/16 13:58:11;;;;;;;18.88;14.20;;;13.70;99.90;;;;;;4998990;28;20175;-75
2023/02/16 14:00:39;;;;;;;21.60;15.63;;;13.80;99.90;;;;;;4998707;28;20209;-75
2023/02/16 14:03:15;;;;;;;20.75;14.18;;;13.90;99.90;;;;;;4999004;28;20233;-76
2023/02/16 14:05:49;;;;;;;17.57;13.57;;;14.10;99.90;;;;;;4982364;28;20229;-76
2023/02/16 14:08:30;;;;;;;16.47;12.17;;;14.20;99.90;;;;;;5038365;28;20659;-75
2023/02/16 14:11:03;;;;;;;18.37;13.70;;;14.30;99.90;;;;;;5040314;28;20592;-75
2023/02/16 14:13:44;;;;;;;16.40;13.40;;;14.40;99.90;;;;;;5039835;28;20591;-75